createdAt,value
2022-12-20T00:04:23.517Z,33.83
2022-12-20T00:09:25.988Z,39.37
2022-12-20T00:14:28.505Z,31.67
2022-12-20T00:19:31.023Z,34.07
2022-12-20T00:24:33.353Z,32.60
2022-12-20T00:29:35.840Z,34.50
2022-12-20T00:34:38.423Z,40.00
2022-12-20T00:39:40.868Z,33.83
2022-12-20T00:44:43.325Z,35.90
2022-12-20T00:49:45.762Z,31.40
2022-12-20T00:54:48.384Z,45.87
2022-12-20T00:59:51.076Z,34.77
2022-12-20T01:04:53.465Z,33.20
2022-12-20T01:09:57.049Z,38.13
2022-12-20T01:14:59.427Z,29.90
2022-12-20T01:20:01.873Z,35.90
2022-12-20T01:25:04.764Z,36.13
2022-12-20T01:30:08.078Z,35.30
2022-12-20T01:35:10.463Z,31.83
2022-12-20T01:40:13.159Z,29.17
2022-12-20T01:45:25.641Z,37.37
2022-12-20T01:50:28.612Z,33.07
2022-12-20T01:55:32.084Z,33.00
2022-12-20T02:00:34.996Z,40.70
2022-12-20T02:05:45.191Z,33.73
2022-12-20T02:10:56.881Z,35.23
2022-12-20T02:16:00.369Z,39.10
2022-12-20T02:21:14.673Z,36.57
2022-12-20T02:26:20.043Z,33.47
2022-12-20T02:31:29.933Z,38.40
2022-12-20T02:36:33.527Z,32.03
2022-12-20T02:41:42.142Z,34.57
2022-12-20T02:46:45.913Z,36.30
2022-12-20T02:51:51.833Z,34.03
2022-12-20T02:57:10.632Z,30.83
2022-12-20T03:02:13.955Z,32.20
2022-12-20T03:07:16.897Z,41.60
2022-12-20T03:12:19.406Z,29.43
2022-12-20T03:17:21.786Z,32.70
2022-12-20T03:22:24.402Z,30.43
2022-12-20T03:27:28.307Z,30.87
2022-12-20T03:32:32.335Z,32.73
2022-12-20T03:37:35.065Z,31.50
2022-12-20T03:42:39.966Z,28.70
2022-12-20T03:47:42.955Z,27.13
2022-12-20T03:52:45.683Z,29.50
2022-12-20T03:57:48.430Z,30.77
2022-12-20T04:03:02.781Z,31.10
2022-12-20T04:08:06.466Z,31.17
2022-12-20T04:13:08.934Z,30.40
2022-12-20T04:18:11.636Z,30.40
2022-12-20T04:23:14.332Z,30.00
2022-12-20T04:28:17.049Z,33.03
2022-12-20T04:33:19.549Z,31.60
2022-12-20T04:38:22.722Z,32.10
2022-12-20T04:43:27.069Z,32.60
2022-12-20T04:53:56.050Z,33.13
2022-12-20T04:59:12.651Z,27.63
2022-12-20T05:04:17.983Z,33.33
2022-12-20T05:09:20.720Z,32.50
2022-12-20T05:14:24.525Z,29.00
2022-12-20T05:19:27.509Z,32.30
2022-12-20T05:24:48.764Z,36.47
2022-12-20T05:30:00.935Z,30.20
2022-12-20T05:35:05.083Z,41.13
2022-12-20T05:40:09.951Z,44.10
2022-12-20T05:45:13.042Z,51.27
2022-12-20T05:50:35.523Z,49.73
2022-12-20T05:56:17.031Z,48.90
2022-12-20T06:01:19.578Z,36.93
2022-12-20T06:06:22.411Z,36.37
2022-12-20T06:11:29.834Z,29.13
2022-12-20T06:16:39.191Z,35.93
2022-12-20T06:21:43.377Z,37.97
2022-12-20T06:26:49.000Z,38.80
2022-12-20T06:31:55.325Z,16.00
2022-12-20T06:36:58.081Z,30.07
2022-12-20T06:42:04.797Z,69.27
2022-12-20T06:47:10.102Z,70.43
2022-12-20T06:52:14.709Z,61.57
2022-12-20T06:57:21.522Z,57.63
2022-12-20T07:02:27.843Z,56.50
2022-12-20T07:07:30.980Z,42.60
2022-12-20T07:12:33.609Z,41.07
2022-12-20T07:17:39.009Z,38.87
2022-12-20T07:22:44.050Z,44.47
2022-12-20T07:28:05.082Z,44.87
2022-12-20T07:33:07.756Z,49.70
2022-12-20T07:38:10.432Z,58.87
2022-12-20T07:43:12.821Z,47.17
2022-12-20T07:48:18.127Z,51.43
2022-12-20T07:53:26.716Z,63.10
2022-12-20T07:58:30.259Z,57.40
2022-12-20T08:03:39.688Z,54.43
2022-12-20T08:08:51.471Z,47.47
2022-12-20T08:13:57.719Z,41.00
2022-12-20T08:19:00.991Z,34.23
2022-12-20T08:24:03.493Z,41.17
2022-12-20T08:29:06.105Z,48.90
2022-12-20T08:34:10.418Z,47.17
2022-12-20T08:39:12.851Z,54.60
2022-12-20T08:44:15.988Z,46.57
2022-12-20T08:49:18.552Z,48.37
2022-12-20T08:54:39.530Z,46.87
2022-12-20T08:59:42.090Z,59.10
2022-12-20T09:04:44.622Z,42.67
2022-12-20T09:09:47.682Z,49.93
2022-12-20T09:14:50.158Z,45.83
2022-12-20T09:19:52.594Z,39.40
2022-12-20T09:24:55.403Z,39.20
2022-12-20T09:29:57.888Z,56.37
2022-12-20T09:35:00.405Z,50.53
2022-12-20T09:40:02.930Z,44.57
2022-12-20T09:45:12.664Z,39.97
2022-12-20T09:50:20.644Z,44.17
2022-12-20T09:55:43.910Z,46.07
2022-12-20T10:00:54.000Z,40.23
2022-12-20T10:06:20.962Z,39.53
2022-12-20T10:11:57.897Z,36.20
2022-12-20T10:17:10.883Z,52.33
2022-12-20T10:22:17.713Z,54.33
2022-12-20T10:27:21.633Z,46.13
2022-12-20T10:32:27.513Z,64.37
2022-12-20T10:37:31.113Z,55.83
2022-12-20T10:42:38.593Z,48.63
2022-12-20T10:47:44.981Z,43.67
2022-12-20T10:53:12.100Z,40.33
2022-12-20T10:58:33.973Z,39.37
2022-12-20T11:03:51.261Z,41.67
2022-12-20T11:09:00.589Z,45.77
2022-12-20T11:14:15.478Z,36.57
2022-12-20T11:19:42.502Z,43.90
2022-12-20T11:24:49.990Z,42.53
2022-12-20T11:30:18.097Z,47.13
2022-12-20T11:35:47.248Z,48.13
2022-12-20T11:40:49.728Z,53.63
2022-12-20T11:46:26.905Z,51.53
2022-12-20T11:51:43.828Z,50.63
2022-12-20T11:56:51.097Z,50.77
2022-12-20T12:02:12.617Z,55.57
2022-12-20T12:07:27.099Z,52.87
2022-12-20T12:12:57.527Z,48.80
2022-12-20T12:18:03.375Z,47.03
2022-12-20T12:23:30.164Z,55.33
2022-12-20T12:28:33.667Z,76.20
2022-12-20T12:33:42.522Z,66.13
2022-12-20T12:39:02.131Z,41.57
2022-12-20T12:44:20.558Z,48.73
2022-12-20T12:49:27.960Z,45.30
2022-12-20T12:54:39.944Z,50.40
2022-12-20T13:06:30.645Z,55.30
2022-12-20T13:11:33.256Z,47.43
2022-12-20T13:17:10.290Z,34.80
2022-12-20T13:22:19.448Z,34.33
2022-12-20T13:27:27.950Z,43.73
2022-12-20T13:32:49.084Z,42.33
2022-12-20T13:38:06.811Z,49.17
2022-12-20T13:43:24.342Z,42.87
2022-12-20T13:48:33.371Z,52.03
2022-12-20T13:53:37.014Z,58.87
2022-12-20T13:58:44.014Z,52.13
2022-12-20T14:03:48.182Z,61.93
2022-12-20T14:08:52.419Z,49.00
2022-12-20T14:14:00.948Z,48.73
2022-12-20T14:19:06.372Z,55.37
2022-12-20T14:24:17.257Z,46.63
2022-12-20T14:29:24.787Z,45.03
2022-12-20T14:34:32.183Z,44.07
2022-12-20T14:39:37.819Z,53.03
2022-12-20T14:44:40.477Z,55.77
2022-12-20T14:50:08.835Z,58.57
2022-12-20T14:55:22.439Z,57.60
2022-12-20T15:00:28.116Z,52.13
2022-12-20T15:05:38.579Z,51.10
2022-12-20T15:10:52.668Z,49.53
2022-12-20T15:15:55.585Z,58.50
2022-12-20T15:21:31.762Z,57.60
2022-12-20T15:26:35.169Z,61.67
2022-12-20T15:31:37.688Z,52.90
2022-12-20T15:36:40.169Z,50.37
2022-12-20T15:41:47.256Z,68.40
2022-12-20T15:46:50.642Z,58.17
2022-12-20T15:51:54.535Z,59.47
2022-12-20T15:56:59.415Z,55.23
2022-12-20T16:02:02.045Z,53.50
2022-12-20T16:07:12.149Z,53.30
2022-12-20T16:12:19.228Z,52.17
2022-12-20T16:17:22.163Z,56.23
2022-12-20T16:22:26.438Z,62.80
2022-12-20T16:27:29.153Z,61.87
2022-12-20T16:32:32.793Z,73.80
2022-12-20T16:37:38.992Z,62.30
2022-12-20T16:42:42.138Z,59.73
2022-12-20T16:47:46.341Z,55.83
2022-12-20T16:52:50.445Z,63.13
2022-12-20T16:57:53.983Z,53.53
2022-12-20T17:02:57.821Z,63.07
2022-12-20T17:08:00.397Z,60.37
2022-12-20T17:13:02.976Z,71.30
2022-12-20T17:18:05.631Z,74.67
2022-12-20T17:28:35.985Z,79.97
2022-12-20T17:33:38.494Z,76.30
2022-12-20T17:38:41.069Z,69.83
2022-12-20T17:43:43.602Z,70.97
2022-12-20T17:48:47.184Z,72.57
2022-12-20T17:53:52.145Z,76.37
2022-12-20T17:58:55.542Z,59.83
2022-12-20T18:04:04.882Z,59.50
2022-12-20T18:09:14.367Z,67.67
2022-12-20T18:14:17.575Z,80.20
2022-12-20T18:19:20.606Z,74.70
2022-12-20T18:24:23.188Z,64.67
2022-12-20T18:29:25.597Z,56.37
2022-12-20T18:34:28.072Z,53.73
2022-12-20T18:39:30.726Z,60.23
2022-12-20T18:44:36.399Z,70.50
2022-12-20T18:49:38.943Z,52.30
2022-12-20T18:54:41.909Z,44.97
2022-12-20T18:59:44.355Z,59.50
2022-12-20T19:04:46.949Z,64.73
2022-12-20T19:09:49.567Z,63.33
2022-12-20T19:14:52.223Z,56.97
2022-12-20T19:19:54.784Z,60.27
2022-12-20T19:24:58.016Z,77.23
2022-12-20T19:30:00.576Z,74.23
2022-12-20T19:35:16.805Z,62.80
2022-12-20T19:40:25.788Z,53.03
2022-12-20T19:45:28.216Z,46.27
2022-12-20T19:50:30.899Z,45.90
2022-12-20T19:55:33.492Z,55.60
2022-12-20T20:00:36.849Z,49.83
2022-12-20T20:05:41.596Z,47.03
2022-12-20T20:10:44.878Z,57.00
2022-12-20T20:15:51.955Z,70.55
2022-12-20T20:20:55.676Z,83.20
2022-12-20T20:25:58.683Z,64.47
2022-12-20T20:31:02.885Z,60.43
2022-12-20T20:36:06.071Z,50.13
2022-12-20T20:41:09.356Z,51.50
2022-12-20T20:46:14.443Z,48.33
2022-12-20T20:51:17.001Z,44.57
2022-12-20T20:56:19.659Z,44.70
2022-12-20T21:01:23.018Z,42.37
2022-12-20T21:06:41.085Z,44.07
2022-12-20T21:11:44.907Z,50.53
2022-12-20T21:16:47.616Z,55.57
2022-12-20T21:21:50.238Z,44.93
2022-12-20T21:26:55.244Z,60.00
2022-12-20T21:31:57.764Z,65.27
2022-12-20T21:37:00.276Z,52.83
2022-12-20T21:42:02.831Z,51.70
2022-12-20T21:47:05.705Z,53.10
2022-12-20T21:52:08.263Z,52.93
2022-12-20T21:57:11.306Z,49.50
2022-12-20T22:02:14.419Z,39.00
2022-12-20T22:07:17.196Z,51.97
2022-12-20T22:12:19.888Z,51.87
2022-12-20T22:17:22.954Z,53.67
2022-12-20T22:22:25.746Z,55.33
2022-12-20T22:27:28.264Z,49.97
2022-12-20T22:32:32.487Z,49.97
2022-12-20T22:37:35.211Z,56.37
2022-12-20T22:42:41.001Z,57.97
2022-12-20T22:47:43.509Z,55.23
2022-12-20T22:52:46.194Z,52.90
2022-12-20T22:57:48.884Z,53.10
2022-12-20T23:02:51.926Z,53.77
2022-12-20T23:07:54.561Z,53.00
2022-12-20T23:13:15.588Z,52.13
2022-12-20T23:18:21.227Z,56.33
2022-12-20T23:23:23.744Z,61.63
2022-12-20T23:28:26.355Z,56.40
2022-12-20T23:33:28.830Z,51.50
2022-12-20T23:38:36.884Z,56.30
2022-12-20T23:43:39.775Z,57.47
2022-12-20T23:48:42.852Z,56.23
2022-12-20T23:53:45.384Z,55.67
2022-12-20T23:58:55.065Z,45.13
